Nearby METAR Reports

 

KCOS - Colorado Springs, Colorado, USA
Distance from station: S 6mi, 9km
Updated: Sat, 15-Jun-2024 6:54pm MDT
Mostly cloudy
Mostly cloudy
 Wind from SE
Wind: SE 10 mph, 17 km/h
Temperature: 82°F, 28°C
Dew Point: 37°F, 3°C
Humidity: 20%
Barometer: 29.94 inHg, 1013.9 hPa
Clouds: Mostly cloudy
Visibility: 10 miles, 16 km
Cloud details: Few Clouds 8000 ft
Mostly cloudy 13000 ft
Mostly cloudy 25000 ft
2024/06/16 00:54 KCOS 160054Z 14009KT 10SM FEW080 BKN130 BKN250 28/03 A2994 RMK AO2 SLP041 VIRGA N-E-S T02780033 $
KAFF - Usaf Academy/Cos, Colorado, USA
Distance from station: NW 7mi, 12km
Updated: Sat, 15-Jun-2024 6:55pm MDT
Mostly cloudy
Mostly cloudy
 Wind from SSE
Wind: SSE 10 mph, 17 km/h
Temperature: 81°F, 27°C
Dew Point: 34°F, 1°C
Humidity: 18%
Barometer: 29.95 inHg, 1014.2 hPa
Clouds: Mostly cloudy
Visibility: 10 miles, 16 km
Cloud details: Few Clouds 9000 ft
Mostly cloudy 12000 ft
2024/06/16 00:55 KAFF 160055Z 15009KT 10SM FEW090 BKN120 27/01 A2995 RMK AO2A SLP040 T02680012
 
KFLY - Co Spngs Meadow, Colorado, USA
Distance from station: ENE 8mi, 13km
Updated: Sat, 15-Jun-2024 7:35pm MDT
Light rain, Mostly cloudy
Light rain, Mostly cloudy
 Wind from calm
Wind: Calm
Temperature: 75°F, 24°C
Dew Point: 43°F, 6°C
Humidity: 31%
Barometer: 30.01 inHg, 1016.3 hPa
Summary: Light rain
Clouds: Mostly cloudy
Visibility: 10 miles, 16 km
Cloud details: Partly cloudy 3400 ft
Partly cloudy 5500 ft
Mostly cloudy 11000 ft
2024/06/16 01:35 KFLY 160135Z AUTO 00000KT 10SM -RA SCT034 SCT055 BKN110 24/06 A3001 RMK AO2 T02360055
KFCS - Fort Carson, Colorado, USA
Distance from station: S 17mi, 27km
Updated: Sat, 15-Jun-2024 6:56pm MDT
Mostly cloudy
Mostly cloudy
 Wind from S
Wind: S 20 mph, 31 km/h, Gust: 30 mph, 48 km/h
Temperature: 82°F, 28°C
Dew Point: 30°F, -1°C
Humidity: 15%
Barometer: 29.86 inHg, 1011.2 hPa
Clouds: Mostly cloudy
Visibility: 10 miles, 16 km
Cloud details: Few Clouds 5000 ft
Few Clouds 6500 ft
Mostly cloudy 15000 ft
2024/06/16 00:56 KFCS 160056Z AUTO 17017G26KT 10SM FEW050 FEW065 BKN150 28/M01 A2986 RMK AO2 WSHFT 49 SLP033 $
 
KMNH - Monument/Elbert, Colorado, USA
Distance from station: N 22mi, 35km
Updated: Sat, 15-Jun-2024 7:35pm MDT
Clear
Clear
 Wind from SSE
Wind: SSE 9 mph, 15 km/h
Temperature: 68°F, 20°C
Dew Point: 46°F, 8°C
Humidity: 46%
Barometer: 30.02 inHg, 1016.6 hPa
Clouds: Clear
Visibility: 10 miles, 16 km
2024/06/16 01:35 KMNH 160135Z AUTO 15008KT 10SM CLR 20/08 A3002 RMK AO2
K1V6 - Canon City, Colorado, USA
Distance from station: SSW 39mi, 62km
Updated: Sat, 15-Jun-2024 7:35pm MDT
Partly cloudy
Partly cloudy
 Wind from calm
Wind: Calm
Temperature: 84°F, 29°C
Dew Point: 43°F, 6°C
Humidity: 23%
Barometer: 29.88 inHg, 1011.9 hPa
Clouds: Partly cloudy
Visibility: 10 miles, 16 km
Cloud details: Partly cloudy 11000 ft
2024/06/16 01:35 K1V6 160135Z AUTO 00000KT 10SM SCT110 29/06 A2988 RMK AO2
 
KPUB - Pueblo, Colorado, USA
Distance from station: SSE 44mi, 71km
Updated: Sat, 15-Jun-2024 6:53pm MDT
Clear
Clear
 Wind from ENE
Wind: ENE 18 mph, 30 km/h
Temperature: 90°F, 32°C
Dew Point: 43°F, 6°C
Humidity: 20%
Barometer: 29.80 inHg, 1009.1 hPa
Clouds: Clear
Visibility: 10 miles, 16 km
2024/06/16 00:53 KPUB 160053Z 06016KT 10SM CLR 32/06 A2980 RMK AO2 SLP022 T03220056
KAPA - Denver/Arapahoe, Colorado, USA
Distance from station: N 47mi, 75km
Updated: Sat, 15-Jun-2024 6:53pm MDT
Mostly cloudy
Mostly cloudy
 Wind from SSW
Wind: SSW 7 mph, 11 km/h
Temperature: 81°F, 27°C
Dew Point: 43°F, 6°C
Humidity: 26%
Barometer: 29.88 inHg, 1011.9 hPa
Clouds: Mostly cloudy
Visibility: 10 miles, 16 km
Cloud details: Few Clouds 9000 ft
Mostly cloudy 14000 ft
Mostly cloudy 20000 ft
2024/06/16 00:53 KAPA 160053Z 20006KT 10SM FEW090 BKN140 BKN200 27/06 A2988 RMK AO2 SLP046 T02720061